Time;durP1;ratioP1;P1;durP2;ratioP2;P2;SDS_P1;SDS_P2;PMS_P1;PMS_P2;Temp;Humidity;BMP_temperature;BMP_pressure;BME280_temperature;BME280_humidity;BME280_pressure;Samples;Min_cycle;Max_cycle;Signal;HPM_P1;HPM_P2
2022/05/16 00:01:20;;;;;;;0.40;0.40;;;13.40;99.90;;;;;;5054428;28;20206;-68
2022/05/16 00:04:09;;;;;;;0.50;0.50;;;13.40;99.90;;;;;;5054759;28;20609;-67
2022/05/16 00:06:57;;;;;;;0.40;0.40;;;13.40;99.90;;;;;;5053578;28;20198;-68
2022/05/16 00:09:45;;;;;;;0.50;0.50;;;13.30;99.90;;;;;;5055045;28;20208;-68
2022/05/16 00:12:34;;;;;;;0.50;0.50;;;13.30;99.90;;;;;;5054459;28;20209;-66
2022/05/16 00:15:25;;;;;;;0.40;0.40;;;13.20;99.90;;;;;;5054730;28;20688;-69
2022/05/16 00:18:14;;;;;;;0.40;0.40;;;13.20;99.90;;;;;;5054572;28;20670;-68
2022/05/16 00:21:03;;;;;;;0.40;0.40;;;13.10;99.90;;;;;;5055093;28;20213;-67
2022/05/16 00:23:51;;;;;;;0.40;0.40;;;13.20;99.90;;;;;;5054386;28;20225;-68
2022/05/16 00:26:39;;;;;;;0.40;0.40;;;13.20;99.90;;;;;;5053692;28;20278;-68
2022/05/16 00:29:28;;;;;;;0.40;0.40;;;13.10;99.90;;;;;;5054715;28;20202;-67
2022/05/16 00:32:17;;;;;;;0.50;0.50;;;13.10;99.90;;;;;;5054359;28;20283;-68
2022/05/16 00:35:13;;;;;;;0.40;0.40;;;13.10;99.90;;;;;;5054690;28;20221;-70
2022/05/16 00:38:01;;;;;;;0.43;0.43;;;13.10;99.90;;;;;;5054296;28;20616;-68
2022/05/16 00:40:49;;;;;;;0.40;0.40;;;12.90;99.90;;;;;;5054830;28;20290;-69
2022/05/16 00:43:51;;;;;;;0.50;0.50;;;12.90;99.90;;;;;;5053940;28;20283;-68
2022/05/16 00:46:39;;;;;;;0.50;0.50;;;12.90;99.90;;;;;;5085420;28;20220;-67
2022/05/16 00:49:29;;;;;;;0.40;0.40;;;12.90;99.90;;;;;;5093129;28;20425;-69
2022/05/16 00:52:21;;;;;;;0.50;0.50;;;12.90;99.90;;;;;;5094112;28;20426;-68
2022/05/16 00:55:12;;;;;;;0.40;0.40;;;12.80;99.90;;;;;;5093614;28;20212;-68
2022/05/16 00:58:04;;;;;;;0.50;0.50;;;12.80;99.90;;;;;;5093869;28;20204;-68
2022/05/16 01:00:52;;;;;;;0.40;0.40;;;12.80;99.90;;;;;;5094067;28;20414;-69
2022/05/16 01:06:54;;;;;;;0.40;0.40;;;12.70;99.90;;;;;;5045161;28;20264;-68
2022/05/16 01:09:44;;;;;;;0.50;0.50;;;12.70;99.90;;;;;;5093086;28;20206;-68
2022/05/16 01:12:34;;;;;;;0.50;0.50;;;12.70;99.90;;;;;;5093800;28;20203;-70
2022/05/16 01:15:32;;;;;;;0.40;0.40;;;12.90;99.90;;;;;;5093405;28;20410;-68
2022/05/16 01:18:24;;;;;;;0.50;0.50;;;12.70;99.90;;;;;;5093509;28;20310;-68
2022/05/16 01:21:26;;;;;;;0.50;0.50;;;12.70;99.90;;;;;;5093652;28;20265;-68
2022/05/16 01:24:17;;;;;;;0.50;0.50;;;12.70;99.90;;;;;;5091525;28;20445;-69
2022/05/16 01:27:05;;;;;;;0.50;0.50;;;12.70;99.90;;;;;;5092996;28;20216;-67
2022/05/16 01:29:53;;;;;;;0.50;0.50;;;12.60;99.90;;;;;;5091783;28;20426;-68
2022/05/16 01:32:41;;;;;;;0.50;0.50;;;12.60;99.90;;;;;;5093258;28;20472;-68
2022/05/16 01:35:32;;;;;;;0.50;0.50;;;12.60;99.90;;;;;;5092490;28;20426;-68
2022/05/16 01:38:22;;;;;;;0.40;0.40;;;12.60;99.90;;;;;;5092640;28;20200;-67
2022/05/16 01:41:14;;;;;;;0.50;0.50;;;12.50;99.90;;;;;;5093344;28;20422;-70
2022/05/16 01:44:03;;;;;;;0.40;0.40;;;12.50;99.90;;;;;;5091816;28;20238;-68
2022/05/16 01:46:51;;;;;;;0.40;0.40;;;12.40;99.90;;;;;;5075329;28;20463;-69
2022/05/16 01:49:39;;;;;;;0.50;0.50;;;12.50;99.90;;;;;;5068152;28;20431;-70
2022/05/16 01:52:27;;;;;;;0.40;0.40;;;12.40;99.90;;;;;;5074437;28;20985;-68
2022/05/16 01:55:16;;;;;;;0.50;0.50;;;12.40;99.90;;;;;;5067670;28;20552;-68
2022/05/16 01:58:07;;;;;;;0.50;0.50;;;12.40;99.90;;;;;;5072633;28;20423;-68
2022/05/16 02:00:55;;;;;;;0.50;0.50;;;12.30;99.90;;;;;;5071586;28;21005;-67
2022/05/16 02:03:45;;;;;;;0.50;0.50;;;12.20;99.90;;;;;;5071934;28;20512;-67
2022/05/16 02:06:33;;;;;;;0.40;0.40;;;12.20;99.90;;;;;;5071679;28;20879;-69
2022/05/16 02:09:21;;;;;;;0.50;0.50;;;12.20;99.90;;;;;;5071432;28;20462;-69
2022/05/16 02:12:11;;;;;;;0.50;0.50;;;12.20;99.90;;;;;;5071211;28;20552;-68
2022/05/16 02:15:00;;;;;;;0.50;0.50;;;12.10;99.90;;;;;;5071826;28;20479;-68
2022/05/16 02:17:48;;;;;;;0.40;0.40;;;12.10;99.90;;;;;;5071081;28;20469;-69
2022/05/16 02:20:38;;;;;;;0.40;0.40;;;12.10;99.90;;;;;;5071063;28;20476;-69
2022/05/16 02:26:33;;;;;;;0.50;0.50;;;12.10;99.90;;;;;;5071616;28;20525;-68
2022/05/16 02:29:21;;;;;;;0.40;0.40;;;12.10;99.90;;;;;;5071911;28;20845;-67
2022/05/16 02:32:11;;;;;;;0.50;0.50;;;12.00;99.90;;;;;;5071033;28;20849;-67
2022/05/16 02:34:59;;;;;;;0.40;0.40;;;11.80;99.90;;;;;;5071778;28;20492;-69
2022/05/16 02:37:48;;;;;;;0.50;0.50;;;12.00;99.90;;;;;;5071327;28;20415;-68
2022/05/16 02:40:36;;;;;;;0.50;0.50;;;11.90;99.90;;;;;;5071399;28;21005;-68
2022/05/16 02:43:24;;;;;;;0.50;0.50;;;11.80;99.90;;;;;;5070038;28;20979;-69
2022/05/16 02:46:12;;;;;;;0.47;0.47;;;11.90;99.90;;;;;;5072096;28;20525;-68
2022/05/16 02:49:03;;;;;;;0.40;0.40;;;11.90;99.90;;;;;;5071266;28;20416;-71
2022/05/16 02:51:51;;;;;;;0.50;0.50;;;11.80;99.90;;;;;;5075273;28;20423;-68
2022/05/16 02:54:39;;;;;;;0.50;0.50;;;11.80;99.90;;;;;;5077029;28;20463;-68
2022/05/16 02:57:27;;;;;;;0.40;0.40;;;11.80;99.90;;;;;;5074413;28;20457;-68
2022/05/16 03:00:17;;;;;;;0.50;0.50;;;11.60;99.90;;;;;;5076418;28;21020;-68
2022/05/16 03:03:05;;;;;;;0.50;0.50;;;11.60;99.90;;;;;;5074689;28;20438;-71
2022/05/16 03:05:55;;;;;;;0.50;0.50;;;11.60;99.90;;;;;;5076612;28;20422;-69
2022/05/16 03:08:49;;;;;;;0.40;0.40;;;11.60;99.90;;;;;;5075527;28;20415;-67
2022/05/16 03:11:37;;;;;;;0.50;0.50;;;11.60;99.90;;;;;;5074778;28;20415;-68
2022/05/16 03:14:26;;;;;;;0.40;0.40;;;11.60;99.90;;;;;;5074616;28;20459;-68
2022/05/16 03:17:14;;;;;;;0.50;0.50;;;11.60;99.90;;;;;;5074452;28;20419;-68
2022/05/16 03:20:02;;;;;;;0.50;0.50;;;11.60;99.90;;;;;;5075121;28;20504;-68
2022/05/16 03:22:52;;;;;;;0.43;0.43;;;11.60;99.90;;;;;;5074035;28;20419;-68
2022/05/16 03:25:40;;;;;;;0.40;0.40;;;11.50;99.90;;;;;;5076425;28;20477;-68
2022/05/16 03:28:29;;;;;;;0.50;0.50;;;11.70;99.90;;;;;;5074688;28;20411;-69
2022/05/16 03:31:18;;;;;;;0.50;0.50;;;11.70;99.90;;;;;;5075446;28;20424;-67
2022/05/16 03:34:07;;;;;;;0.50;0.50;;;11.50;99.90;;;;;;5075204;28;20526;-68
2022/05/16 03:36:55;;;;;;;0.50;0.50;;;11.50;99.90;;;;;;5074624;28;20427;-67
2022/05/16 03:42:47;;;;;;;0.50;0.50;;;11.50;99.90;;;;;;5049419;28;20430;-68
2022/05/16 03:45:35;;;;;;;0.40;0.40;;;11.50;99.90;;;;;;5082753;28;20445;-68
2022/05/16 03:48:24;;;;;;;0.50;0.50;;;11.50;99.90;;;;;;5093997;28;20839;-68
2022/05/16 03:51:14;;;;;;;0.50;0.50;;;11.70;99.90;;;;;;5077786;28;20463;-68
2022/05/16 03:54:02;;;;;;;0.50;0.50;;;11.60;99.90;;;;;;5076129;28;20493;-68
2022/05/16 03:56:51;;;;;;;0.50;0.50;;;11.60;99.90;;;;;;5076691;28;20510;-68
2022/05/16 03:59:39;;;;;;;0.50;0.50;;;11.80;99.90;;;;;;5073861;28;20428;-68
2022/05/16 04:02:27;;;;;;;0.50;0.50;;;11.70;99.90;;;;;;5073367;28;20468;-68
2022/05/16 04:05:19;;;;;;;0.40;0.40;;;11.80;99.90;;;;;;5073720;28;20899;-69
2022/05/16 04:08:08;;;;;;;0.50;0.50;;;11.80;99.90;;;;;;5074355;28;20550;-67
2022/05/16 04:10:57;;;;;;;0.40;0.40;;;11.80;99.90;;;;;;5074198;28;20472;-67
2022/05/16 04:13:48;;;;;;;0.40;0.40;;;11.90;99.90;;;;;;5075610;28;20759;-68
2022/05/16 04:16:37;;;;;;;0.40;0.40;;;11.90;99.90;;;;;;5073786;28;20419;-67
2022/05/16 04:19:26;;;;;;;0.50;0.50;;;11.90;99.90;;;;;;5073685;28;20426;-70
2022/05/16 04:22:14;;;;;;;0.50;0.50;;;12.00;99.90;;;;;;5073883;28;20424;-68
2022/05/16 04:25:02;;;;;;;0.50;0.50;;;12.00;99.90;;;;;;5074083;28;20446;-68
2022/05/16 04:27:51;;;;;;;0.50;0.50;;;12.10;99.90;;;;;;5072983;28;20556;-67
2022/05/16 04:30:41;;;;;;;0.50;0.50;;;12.10;99.90;;;;;;5074706;28;20477;-69
2022/05/16 04:33:29;;;;;;;0.50;0.50;;;12.20;99.90;;;;;;5073091;28;20811;-68
2022/05/16 04:36:17;;;;;;;0.50;0.50;;;12.20;99.90;;;;;;5073778;28;20451;-68
2022/05/16 04:39:05;;;;;;;0.50;0.50;;;12.20;99.90;;;;;;5072982;28;21002;-69
2022/05/16 04:44:59;;;;;;;0.50;0.50;;;12.40;99.90;;;;;;5076051;28;20502;-68
2022/05/16 04:47:52;;;;;;;0.47;0.47;;;12.50;99.90;;;;;;5094314;28;20497;-69
2022/05/16 04:50:40;;;;;;;0.50;0.50;;;12.40;99.90;;;;;;5093070;28;20487;-68
2022/05/16 04:53:28;;;;;;;0.50;0.50;;;12.50;99.90;;;;;;5093551;28;20437;-70
2022/05/16 04:56:16;;;;;;;0.50;0.50;;;12.50;99.90;;;;;;5092986;28;20826;-70
2022/05/16 04:59:04;;;;;;;0.50;0.50;;;12.60;99.90;;;;;;5092538;28;20472;-69
2022/05/16 05:01:52;;;;;;;0.40;0.40;;;12.60;99.90;;;;;;5092671;28;20426;-68
2022/05/16 05:04:42;;;;;;;0.50;0.50;;;12.80;99.90;;;;;;5093133;28;20529;-69
2022/05/16 05:07:30;;;;;;;0.50;0.50;;;12.70;99.90;;;;;;5093691;28;20532;-68
2022/05/16 05:16:32;;;;;;;0.50;0.50;;;13.00;99.90;;;;;;5092671;28;20203;-69
2022/05/16 05:19:21;;;;;;;0.40;0.40;;;13.10;99.90;;;;;;5092463;28;20410;-69
2022/05/16 05:22:12;;;;;;;0.50;0.50;;;13.10;99.90;;;;;;5091945;28;20467;-68
2022/05/16 05:25:00;;;;;;;0.47;0.47;;;13.00;99.90;;;;;;5092576;28;20572;-69
2022/05/16 05:27:50;;;;;;;0.40;0.40;;;13.10;99.90;;;;;;5093409;28;21053;-71
2022/05/16 05:30:38;;;;;;;0.40;0.40;;;13.20;99.90;;;;;;5092386;28;20773;-69
2022/05/16 05:33:26;;;;;;;0.50;0.50;;;13.20;99.90;;;;;;5091585;28;20242;-69
2022/05/16 05:36:14;;;;;;;0.50;0.50;;;13.20;99.90;;;;;;5092111;28;20431;-68
2022/05/16 05:39:04;;;;;;;0.50;0.50;;;13.40;99.90;;;;;;5091771;28;20204;-70
2022/05/16 05:41:52;;;;;;;0.60;0.60;;;13.50;99.90;;;;;;5085261;28;20438;-69
2022/05/16 05:44:40;;;;;;;0.50;0.50;;;13.50;99.90;;;;;;5071653;28;20289;-69
2022/05/16 05:47:28;;;;;;;0.40;0.40;;;13.70;99.90;;;;;;5053079;28;20578;-70
2022/05/16 05:50:17;;;;;;;0.40;0.40;;;13.60;99.90;;;;;;5054094;28;20193;-68
2022/05/16 05:53:05;;;;;;;0.50;0.50;;;13.80;99.90;;;;;;5053086;28;20420;-70
2022/05/16 05:55:55;;;;;;;0.40;0.40;;;13.80;99.90;;;;;;5053156;28;20478;-68
2022/05/16 05:58:43;;;;;;;0.40;0.40;;;14.00;99.90;;;;;;5067665;28;20459;-69
2022/05/16 06:01:32;;;;;;;0.50;0.50;;;14.10;99.90;;;;;;5073385;28;20204;-69
2022/05/16 06:04:20;;;;;;;0.40;0.40;;;14.10;99.90;;;;;;5072019;28;20346;-68
2022/05/16 06:07:09;;;;;;;0.40;0.40;;;14.20;99.90;;;;;;5067993;28;20197;-71
2022/05/16 06:09:57;;;;;;;0.50;0.50;;;14.40;99.90;;;;;;5071931;28;20645;-69
2022/05/16 06:12:50;;;;;;;0.40;0.40;;;14.40;99.90;;;;;;5072909;28;20958;-70
2022/05/16 06:15:38;;;;;;;0.40;0.40;;;14.50;99.90;;;;;;5071594;28;20423;-69
2022/05/16 06:18:26;;;;;;;0.47;0.47;;;14.50;99.90;;;;;;5072263;28;20423;-69
2022/05/16 06:21:14;;;;;;;0.40;0.40;;;14.60;99.90;;;;;;5071983;28;20423;-70
2022/05/16 06:24:04;;;;;;;0.70;0.70;;;14.70;99.90;;;;;;5068864;28;20282;-67
2022/05/16 06:26:52;;;;;;;0.53;0.53;;;14.80;99.90;;;;;;5068454;28;20458;-67
2022/05/16 06:29:42;;;;;;;0.40;0.40;;;14.90;99.90;;;;;;5061153;28;20221;-68
2022/05/16 06:32:30;;;;;;;0.40;0.40;;;14.90;99.90;;;;;;5071798;28;20242;-68
2022/05/16 06:35:18;;;;;;;0.50;0.50;;;15.00;99.90;;;;;;5072806;28;20672;-69
2022/05/16 06:38:09;;;;;;;0.50;0.50;;;15.10;99.90;;;;;;5072500;28;20193;-70
2022/05/16 06:40:58;;;;;;;1.87;1.77;;;15.20;99.90;;;;;;5072018;28;20220;-68
2022/05/16 06:43:46;;;;;;;0.50;0.50;;;15.30;99.90;;;;;;5071436;28;20696;-68
2022/05/16 06:46:36;;;;;;;0.40;0.40;;;15.40;99.90;;;;;;5084085;28;20700;-67
2022/05/16 06:49:24;;;;;;;0.50;0.50;;;15.50;99.90;;;;;;5091203;28;20261;-70
2022/05/16 06:52:12;;;;;;;0.98;0.80;;;15.50;99.90;;;;;;5091809;28;20249;-68
2022/05/16 06:55:01;;;;;;;0.40;0.40;;;15.80;99.90;;;;;;5091945;28;20257;-68
2022/05/16 06:57:49;;;;;;;0.50;0.50;;;15.70;99.90;;;;;;5092719;28;21022;-67
2022/05/16 07:00:38;;;;;;;0.50;0.50;;;15.80;99.90;;;;;;5089755;28;20204;-66
2022/05/16 07:03:27;;;;;;;0.80;0.80;;;16.00;99.90;;;;;;5090879;28;20786;-68
2022/05/16 07:06:16;;;;;;;0.98;0.98;;;16.00;99.90;;;;;;5092030;28;20223;-68
2022/05/16 07:09:04;;;;;;;0.50;0.50;;;16.10;99.90;;;;;;5091277;28;20224;-67
2022/05/16 07:11:53;;;;;;;0.40;0.40;;;16.20;99.90;;;;;;5091650;28;20270;-68
2022/05/16 07:14:42;;;;;;;0.40;0.40;;;16.20;99.90;;;;;;5091099;28;20223;-68
2022/05/16 07:17:30;;;;;;;0.40;0.40;;;16.50;99.90;;;;;;5092172;28;20203;-68
2022/05/16 07:20:20;;;;;;;0.40;0.40;;;16.60;99.90;;;;;;5089878;28;20232;-68
2022/05/16 07:23:09;;;;;;;0.40;0.40;;;16.60;99.90;;;;;;5090183;28;20200;-69
2022/05/16 07:29:03;;;;;;;0.50;0.50;;;16.90;99.90;;;;;;5090835;28;20306;-69
2022/05/16 07:31:52;;;;;;;0.40;0.40;;;17.00;99.90;;;;;;5089643;28;20699;-69
2022/05/16 07:34:41;;;;;;;0.40;0.40;;;17.00;99.90;;;;;;5090225;28;20603;-68
2022/05/16 07:37:31;;;;;;;0.40;0.40;;;17.10;99.90;;;;;;5091888;28;20706;-69
2022/05/16 07:40:19;;;;;;;0.50;0.50;;;17.20;99.90;;;;;;5093900;28;20242;-69
2022/05/16 07:43:07;;;;;;;0.40;0.40;;;17.20;99.90;;;;;;5093077;28;20246;-68
2022/05/16 07:45:55;;;;;;;0.40;0.40;;;17.30;99.90;;;;;;5084804;28;20205;-69
2022/05/16 07:48:44;;;;;;;0.50;0.50;;;17.30;99.90;;;;;;5069571;28;20213;-69
2022/05/16 07:51:32;;;;;;;0.50;0.50;;;17.40;99.90;;;;;;5072916;28;20201;-71
2022/05/16 07:54:22;;;;;;;1.00;0.93;;;17.60;99.90;;;;;;5073701;28;20213;-70
2022/05/16 07:57:10;;;;;;;0.50;0.50;;;17.50;99.90;;;;;;5072168;28;20284;-68
2022/05/16 07:59:58;;;;;;;0.40;0.40;;;17.60;99.90;;;;;;5066010;28;20268;-70
2022/05/16 08:02:46;;;;;;;0.50;0.50;;;17.70;99.90;;;;;;5073633;28;20208;-70
2022/05/16 08:05:35;;;;;;;0.40;0.40;;;17.80;99.90;;;;;;5074788;28;20262;-68
2022/05/16 08:11:34;;;;;;;0.50;0.50;;;18.00;99.90;;;;;;5063776;28;20580;-72
2022/05/16 08:14:22;;;;;;;0.40;0.40;;;18.20;99.90;;;;;;5067284;28;20247;-72
2022/05/16 08:17:10;;;;;;;0.50;0.50;;;18.20;99.90;;;;;;5061669;28;20553;-70
2022/05/16 08:19:59;;;;;;;0.40;0.40;;;18.30;99.90;;;;;;5065883;28;20200;-70
2022/05/16 08:22:47;;;;;;;0.50;0.50;;;18.30;99.90;;;;;;5061041;28;20221;-69
2022/05/16 08:25:35;;;;;;;0.70;0.70;;;18.40;99.90;;;;;;5064443;28;20291;-69
2022/05/16 08:28:25;;;;;;;0.40;0.40;;;18.50;99.90;;;;;;5065603;28;20205;-70
2022/05/16 08:31:13;;;;;;;0.40;0.40;;;18.50;99.90;;;;;;5065498;28;20207;-70
2022/05/16 08:34:02;;;;;;;0.40;0.40;;;18.70;99.90;;;;;;5053686;28;20596;-68
2022/05/16 08:40:01;;;;;;;0.50;0.50;;;18.90;99.90;;;;;;5052108;28;20208;-71
2022/05/16 08:42:53;;;;;;;0.50;0.50;;;18.90;99.90;;;;;;5051766;28;20233;-73
2022/05/16 08:45:48;;;;;;;0.40;0.40;;;19.00;99.90;;;;;;5085716;28;20206;-71
2022/05/16 08:48:39;;;;;;;0.45;0.45;;;19.10;99.90;;;;;;5092290;28;20200;-68
2022/05/16 08:51:33;;;;;;;0.50;0.50;;;19.20;99.90;;;;;;5091406;28;20230;-70
2022/05/16 08:54:30;;;;;;;0.40;0.40;;;19.40;99.90;;;;;;5067566;28;20598;-68
2022/05/16 08:57:34;;;;;;;0.40;0.40;;;19.40;99.90;;;;;;5077143;28;20241;-69
2022/05/16 09:00:27;;;;;;;0.40;0.40;;;19.60;99.90;;;;;;5073853;28;20205;-70
2022/05/16 09:03:24;;;;;;;0.40;0.40;;;19.60;99.90;;;;;;5059583;28;20232;-70
2022/05/16 09:06:17;;;;;;;0.50;0.50;;;19.70;99.90;;;;;;5063084;28;20228;-69
2022/05/16 09:09:12;;;;;;;0.40;0.40;;;19.80;99.90;;;;;;5055355;28;20261;-69
2022/05/16 09:12:06;;;;;;;0.40;0.40;;;20.00;99.60;;;;;;5051921;28;20275;-71
2022/05/16 09:15:05;;;;;;;0.40;0.40;;;20.00;98.20;;;;;;5051867;28;20250;-67
2022/05/16 09:18:09;;;;;;;0.40;0.40;;;20.10;97.70;;;;;;5052353;28;20701;-69
2022/05/16 09:21:08;;;;;;;0.40;0.40;;;20.30;98.10;;;;;;5064682;28;20203;-71
2022/05/16 09:24:04;;;;;;;0.40;0.40;;;20.50;97.80;;;;;;5090873;28;20216;-70
2022/05/16 09:27:05;;;;;;;0.50;0.50;;;20.70;96.70;;;;;;5090894;28;20277;-69
2022/05/16 09:29:54;;;;;;;0.40;0.40;;;20.80;96.40;;;;;;5090699;28;20252;-68
2022/05/16 09:32:48;;;;;;;0.40;0.40;;;20.90;95.80;;;;;;5090918;28;20249;-70
2022/05/16 09:35:46;;;;;;;0.40;0.40;;;21.00;95.20;;;;;;5091128;28;20196;-68
2022/05/16 09:38:35;;;;;;;0.40;0.40;;;21.00;95.20;;;;;;5090975;28;20270;-68
2022/05/16 09:41:26;;;;;;;0.40;0.40;;;21.00;94.50;;;;;;5090668;28;20196;-70
2022/05/16 09:44:23;;;;;;;0.40;0.40;;;21.00;93.80;;;;;;5089531;28;20452;-69
2022/05/16 09:47:26;;;;;;;0.40;0.40;;;21.10;93.30;;;;;;5090060;28;20589;-68
2022/05/16 09:50:20;;;;;;;0.40;0.40;;;21.20;92.20;;;;;;5091300;28;20230;-70
2022/05/16 09:53:14;;;;;;;0.40;0.40;;;21.40;90.80;;;;;;5089675;28;20200;-70
2022/05/16 09:56:09;;;;;;;0.50;0.50;;;21.40;91.00;;;;;;5090393;28;20207;-70
2022/05/16 09:59:00;;;;;;;0.40;0.40;;;21.40;90.60;;;;;;5089362;28;20211;-69
2022/05/16 10:01:53;;;;;;;0.40;0.40;;;21.40;89.90;;;;;;5086646;28;20576;-70
2022/05/16 10:05:05;;;;;;;0.40;0.40;;;21.60;90.00;;;;;;5071481;28;20255;-68
2022/05/16 10:08:03;;;;;;;0.40;0.40;;;21.60;88.70;;;;;;5071534;28;20687;-69
2022/05/16 10:10:51;;;;;;;0.40;0.40;;;21.60;87.30;;;;;;5070982;28;20247;-68
2022/05/16 10:13:41;;;;;;;0.40;0.40;;;21.60;86.30;;;;;;5066898;28;20321;-70
2022/05/16 10:16:37;;;;;;;0.40;0.40;;;21.70;86.60;;;;;;5055988;28;20205;-68
2022/05/16 10:19:31;;;;;;;0.40;0.40;;;21.80;86.00;;;;;;5050034;28;20206;-69
2022/05/16 10:22:26;;;;;;;0.40;0.40;;;21.90;86.10;;;;;;5068219;28;20343;-69
2022/05/16 10:26:02;;;;;;;0.40;0.40;;;22.00;86.00;;;;;;5071446;28;20276;-68
2022/05/16 10:29:02;;;;;;;0.40;0.40;;;22.00;84.00;;;;;;5070692;28;20776;-68
2022/05/16 10:35:17;;;;;;;0.40;0.40;;;22.10;85.30;;;;;;5070446;28;20697;-70
2022/05/16 10:38:16;;;;;;;0.40;0.40;;;22.30;85.60;;;;;;5071067;28;20305;-68
2022/05/16 10:41:16;;;;;;;0.40;0.40;;;22.30;85.30;;;;;;5065899;28;20201;-68
2022/05/16 10:44:18;;;;;;;0.40;0.40;;;22.40;84.00;;;;;;5064263;28;20724;-67
2022/05/16 10:47:14;;;;;;;0.40;0.40;;;22.50;81.80;;;;;;5062016;28;20213;-68
2022/05/16 10:50:12;;;;;;;0.40;0.40;;;22.60;80.50;;;;;;5050582;28;20640;-68
2022/05/16 10:53:11;;;;;;;0.40;0.40;;;22.70;79.70;;;;;;5060836;28;20665;-69
2022/05/16 10:56:11;;;;;;;0.40;0.40;;;22.90;80.40;;;;;;5066717;28;20253;-68
2022/05/16 10:59:15;;;;;;;0.40;0.40;;;23.10;80.00;;;;;;5049924;28;20283;-68
2022/05/16 11:02:30;;;;;;;0.98;0.98;;;23.10;80.90;;;;;;5050400;28;20200;-68
2022/05/16 11:05:39;;;;;;;0.40;0.40;;;23.20;80.80;;;;;;5061332;28;20607;-69
2022/05/16 11:08:46;;;;;;;0.40;0.40;;;23.30;80.40;;;;;;5062576;28;20203;-68
2022/05/16 11:11:43;;;;;;;0.50;0.50;;;23.40;79.40;;;;;;5050823;28;20279;-68
2022/05/16 11:14:39;;;;;;;0.50;0.50;;;23.40;76.50;;;;;;5054146;28;20221;-68
2022/05/16 11:17:41;;;;;;;0.40;0.40;;;23.30;76.60;;;;;;5053310;28;20579;-68
2022/05/16 11:20:42;;;;;;;0.40;0.40;;;23.30;76.30;;;;;;5057355;28;20227;-69
2022/05/16 11:23:47;;;;;;;2.40;2.30;;;23.50;75.80;;;;;;5066833;28;20233;-68
2022/05/16 11:26:47;;;;;;;0.40;0.40;;;23.60;74.80;;;;;;5064035;28;20202;-69
2022/05/16 11:29:53;;;;;;;0.40;0.40;;;23.70;73.40;;;;;;5070059;28;20197;-67
2022/05/16 11:33:08;;;;;;;0.40;0.40;;;23.90;73.80;;;;;;5063988;28;20197;-69
2022/05/16 11:36:05;;;;;;;0.40;0.40;;;24.00;74.50;;;;;;5065005;28;20565;-68
2022/05/16 11:39:11;;;;;;;0.40;0.40;;;24.00;72.10;;;;;;5065413;28;20194;-67
2022/05/16 11:42:17;;;;;;;0.40;0.40;;;24.10;72.00;;;;;;5065215;28;20196;-68
2022/05/16 11:45:23;;;;;;;0.40;0.40;;;24.20;72.40;;;;;;5063092;28;20231;-68
2022/05/16 11:48:29;;;;;;;0.40;0.40;;;24.30;72.00;;;;;;5066964;28;20204;-67
2022/05/16 11:52:09;;;;;;;0.50;0.50;;;24.50;72.60;;;;;;5066191;28;20248;-68
2022/05/16 12:00:31;;;;;;;0.40;0.40;;;24.80;72.20;;;;;;5065882;28;20297;-67
2022/05/16 12:01:32;;;;;;;0.43;0.43;;;25.00;71.80;;;;;;5063658;28;20208;-69
2022/05/16 12:04:29;;;;;;;0.40;0.40;;;25.00;71.00;;;;;;5066802;28;20705;-68
2022/05/16 12:07:24;;;;;;;0.40;0.40;;;24.90;70.00;;;;;;5064569;28;20208;-68
2022/05/16 12:10:32;;;;;;;0.45;0.45;;;24.80;69.90;;;;;;5065554;28;20201;-68
2022/05/16 12:13:27;;;;;;;0.40;0.40;;;24.80;70.40;;;;;;5065326;28;20216;-69
2022/05/16 12:16:21;;;;;;;0.40;0.40;;;24.90;70.20;;;;;;5066868;28;20599;-68
2022/05/16 12:19:22;;;;;;;1.67;0.80;;;25.00;70.40;;;;;;5066563;28;20650;-68
2022/05/16 12:26:09;;;;;;;0.40;0.40;;;25.10;68.90;;;;;;5062349;28;20668;-68
2022/05/16 12:29:17;;;;;;;0.40;0.40;;;25.20;69.50;;;;;;5061548;28;20291;-68
2022/05/16 12:32:09;;;;;;;0.40;0.40;;;25.30;68.90;;;;;;5064253;28;20217;-68
2022/05/16 12:35:02;;;;;;;0.40;0.40;;;25.40;69.60;;;;;;5063901;28;20213;-68
2022/05/16 12:37:55;;;;;;;0.40;0.40;;;25.80;66.80;;;;;;5062649;28;20291;-68
2022/05/16 12:40:57;;;;;;;0.40;0.40;;;26.50;67.40;;;;;;5054730;28;20232;-66
2022/05/16 12:44:00;;;;;;;0.47;0.47;;;28.00;65.20;;;;;;5064085;28;20231;-66
2022/05/16 12:47:04;;;;;;;0.40;0.40;;;29.90;60.30;;;;;;5062907;28;20208;-66
2022/05/16 12:50:06;;;;;;;0.40;0.40;;;32.10;58.20;;;;;;5052702;28;20204;-67
2022/05/16 12:53:27;;;;;;;0.40;0.40;;;34.20;53.30;;;;;;5051811;28;20200;-67
2022/05/16 12:56:23;;;;;;;1.77;1.48;;;36.40;49.90;;;;;;5068985;28;20200;-67
2022/05/16 12:59:22;;;;;;;0.40;0.40;;;38.10;45.50;;;;;;5065610;28;20188;-67
2022/05/16 13:02:15;;;;;;;0.40;0.40;;;39.20;42.30;;;;;;5062462;28;20205;-68
2022/05/16 13:05:11;;;;;;;0.40;0.40;;;39.90;41.20;;;;;;5064530;28;20306;-67
2022/05/16 13:08:10;;;;;;;0.40;0.40;;;40.30;39.90;;;;;;5061427;28;20201;-68
2022/05/16 13:11:12;;;;;;;0.40;0.40;;;41.20;39.20;;;;;;5068951;28;20361;-68
2022/05/16 13:14:07;;;;;;;0.40;0.40;;;41.80;38.30;;;;;;5062194;28;20243;-68
2022/05/16 13:16:59;;;;;;;0.40;0.40;;;42.50;37.10;;;;;;5062184;28;20257;-68
2022/05/16 13:19:53;;;;;;;0.40;0.40;;;43.00;36.10;;;;;;5063823;28;20189;-68
2022/05/16 13:22:43;;;;;;;0.50;0.50;;;43.30;35.00;;;;;;5060668;28;20271;-68
2022/05/16 13:29:21;;;;;;;1.75;1.13;;;43.50;34.40;;;;;;5057033;28;20336;-69
2022/05/16 13:31:56;;;;;;;0.40;0.40;;;43.90;33.30;;;;;;5050993;28;20739;-68
2022/05/16 13:34:46;;;;;;;0.40;0.40;;;43.60;33.40;;;;;;5051061;28;20593;-68
2022/05/16 13:37:43;;;;;;;0.50;0.50;;;43.60;33.30;;;;;;5052021;28;20197;-69
2022/05/16 13:40:35;;;;;;;1.02;1.02;;;43.70;32.70;;;;;;5051851;28;20209;-69
2022/05/16 13:43:25;;;;;;;0.50;0.50;;;43.80;33.70;;;;;;5051259;28;20221;-69
2022/05/16 13:46:14;;;;;;;0.50;0.50;;;44.70;33.60;;;;;;5060607;28;20207;-68
2022/05/16 13:49:05;;;;;;;0.50;0.50;;;45.30;32.00;;;;;;5063165;28;20209;-69
2022/05/16 13:51:54;;;;;;;0.50;0.50;;;44.60;31.80;;;;;;5070932;28;20700;-68
2022/05/16 13:54:42;;;;;;;0.50;0.50;;;43.20;32.00;;;;;;5069877;28;20216;-68
2022/05/16 13:57:31;;;;;;;0.40;0.40;;;42.00;32.70;;;;;;5070747;28;20700;-68
2022/05/16 14:00:36;;;;;;;0.40;0.40;;;39.80;33.40;;;;;;5069892;28;20211;-68
2022/05/16 14:03:30;;;;;;;0.50;0.50;;;37.60;35.40;;;;;;5062536;28;20593;-68
2022/05/16 14:06:31;;;;;;;0.40;0.40;;;36.10;37.60;;;;;;5064808;28;20208;-68
2022/05/16 14:09:22;;;;;;;0.40;0.40;;;35.80;38.00;;;;;;5059028;28;20193;-68
2022/05/16 14:12:15;;;;;;;0.40;0.40;;;35.80;37.00;;;;;;5069474;28;20784;-68
2022/05/16 14:15:07;;;;;;;0.40;0.40;;;35.80;36.90;;;;;;5070165;28;20225;-68
2022/05/16 14:18:02;;;;;;;0.50;0.50;;;35.80;36.40;;;;;;5069217;28;20220;-68
2022/05/16 14:20:55;;;;;;;0.40;0.40;;;36.00;37.70;;;;;;5065597;28;20359;-68
2022/05/16 14:23:46;;;;;;;0.40;0.40;;;36.60;37.70;;;;;;5062729;28;20224;-68
2022/05/16 14:26:48;;;;;;;0.40;0.40;;;37.40;37.00;;;;;;5071217;28;20550;-68
2022/05/16 14:29:36;;;;;;;0.40;0.40;;;39.40;35.20;;;;;;5069641;28;20249;-69
2022/05/16 14:32:25;;;;;;;0.50;0.50;;;41.60;34.00;;;;;;5070010;28;20303;-68
2022/05/16 14:35:22;;;;;;;0.85;0.85;;;43.20;33.50;;;;;;5069836;28;20278;-69
2022/05/16 14:38:14;;;;;;;0.50;0.50;;;44.50;32.40;;;;;;5071730;28;20196;-69
2022/05/16 14:41:06;;;;;;;0.50;0.50;;;45.50;31.60;;;;;;5070043;28;20201;-69
2022/05/16 14:43:57;;;;;;;0.60;0.60;;;46.30;30.80;;;;;;5069687;28;20256;-69
2022/05/16 14:46:58;;;;;;;0.50;0.50;;;46.40;30.00;;;;;;5074293;28;20201;-69
2022/05/16 14:49:47;;;;;;;0.50;0.50;;;44.80;30.30;;;;;;5073854;28;20757;-69
2022/05/16 14:52:37;;;;;;;0.40;0.40;;;42.70;31.10;;;;;;5073522;28;20655;-68
2022/05/16 14:55:29;;;;;;;0.50;0.50;;;41.30;32.50;;;;;;5069672;28;20696;-69
2022/05/16 14:58:18;;;;;;;0.40;0.40;;;41.40;33.10;;;;;;5067923;28;20688;-69
2022/05/16 15:04:12;;;;;;;1.88;1.88;;;41.00;33.00;;;;;;5066188;28;20626;-69
2022/05/16 15:07:01;;;;;;;0.40;0.40;;;40.40;32.80;;;;;;5065791;28;20212;-69
2022/05/16 15:09:49;;;;;;;0.40;0.40;;;39.80;33.40;;;;;;5064994;28;20550;-69
2022/05/16 15:12:42;;;;;;;0.40;0.40;;;39.50;33.60;;;;;;5064680;28;20216;-69
2022/05/16 15:15:30;;;;;;;0.40;0.40;;;38.90;34.40;;;;;;5065030;28;20198;-69
2022/05/16 15:18:18;;;;;;;0.40;0.40;;;37.80;35.10;;;;;;5066520;28;20198;-69
2022/05/16 15:21:08;;;;;;;0.50;0.50;;;37.20;35.70;;;;;;5066908;28;20193;-69
2022/05/16 15:23:56;;;;;;;0.40;0.40;;;37.00;36.00;;;;;;5064321;28;20217;-68
2022/05/16 15:26:44;;;;;;;0.40;0.40;;;37.30;35.40;;;;;;5068591;28;20200;-69
2022/05/16 15:29:36;;;;;;;0.40;0.40;;;37.20;36.00;;;;;;5072053;28;20204;-69
2022/05/16 15:32:25;;;;;;;0.40;0.40;;;37.10;36.10;;;;;;5073420;28;20228;-69
2022/05/16 15:35:13;;;;;;;0.40;0.40;;;36.70;36.00;;;;;;5071150;28;20712;-69
2022/05/16 15:38:01;;;;;;;0.40;0.40;;;35.90;36.50;;;;;;5067060;28;20197;-68
2022/05/16 15:40:51;;;;;;;0.40;0.40;;;35.30;36.90;;;;;;5073600;28;20196;-68
2022/05/16 15:43:39;;;;;;;0.40;0.40;;;34.50;38.20;;;;;;5072571;28;20250;-68